KCNU

Chanute Martin Johnson Airport

Chanute, Kansas, USA
METAR KCNU 172052Z AUTO 19008KT 10SM SCT008 OVC016 08/07 A3001 RMK AO2 SLP163 T00830067 55004
Observed Flight Rules
Dec-17 @ 20:52 UTC (25 minutes ago) Marginal Visual Flight Rules
Wind Visibility Clouds
190° at 8 knots 10 miles
  • Scattered at 800' AGL
  • Overcast at 1,600' AGL
Temperatures Readings
Current 8°C / 46°F
Dewpoint 7°C / 45°F
Humidity 93%
Altimeter 30.01" Hg
Pressure 1016.3 hPa
Elevation 297
METAR KCNU 172052Z AUTO 19008KT 10SM SCT008 OVC016 08/07 A3001 RMK AO2 SLP163 T00830067 55004
Observed Flight Rules
Dec-17 @ 20:52 UTC
(25 minutes ago)
MVFR
Wind Visibility
190° at 8 knots 10 miles
Clouds
  • Scattered at 800' AGL
  • Overcast at 1,600' AGL
Temperature Dewpoint
8°C / 46°F 7°C / 45°F
Humidity Altimeter Pressure
93% 30.01" Hg 1016.3 hPa